Carson Valley, Nevada Weather observations

Data are for 10 minute period ending at time listed.
 Day   Time   Solar   Ave.   Ave.  Ave.  Vector  Max.   Baro.   Total    
  of    of     Rad.   Air    Rel.  Wind   Wind   Wind  Press.  Precip.   
Year   Day            Temp.  Hum.  Speed  Dir.   Gust                    
2016   (PST)  Kw/m2    F      %     mph   deg.    mph    mb.     in.     
-------------------------------------------------------------------------
 242   11:00   0.59   83.9    13    2.7    25     5.9   861.3    0.00 
 242   11:10   0.84   84.7    15    2.2   320     4.6   861.2    0.00 
 242   11:20   0.81   84.8    16    2.7   325     5.2   861.0    0.00 
 242   11:30   0.81   84.9    14    3.5   319     7.5   860.9    0.00 
 242   11:40   0.76   86.4    14    2.7   348     9.2   860.7    0.00 
 242   11:50   0.82   86.0    14    6.1   339    12.3   860.7    0.00 
 242   12:00   0.82   85.2    18    8.7   298    15.9   860.5    0.00 
 242   12:10   0.82   85.2    17    8.2   286    14.7   860.3    0.00 
 242   12:20   0.81   85.6    16    9.1   300    15.3   860.3    0.00 
 242   12:30   0.81   85.7    18    8.8   287    15.1   860.2    0.00 
 242   12:40   0.80   85.8    17   10.3   290    17.5   860.2    0.00 
 242   12:50   0.80   86.1    15    7.2   274    15.6   860.1    0.00 
 242   13:00   0.79   86.3    15    9.6   272    17.7   859.9    0.00 
 242   13:10   0.78   86.1    16   10.0   276    15.4   859.8    0.00 
 242   13:20   0.77   86.6    15    8.8   272    14.8   859.7    0.00 
 242   13:30   0.76   86.6    16   10.2   271    16.1   859.5    0.00 
 242   13:40   0.74   86.9    15    8.4   275    14.5   859.4    0.00 
 242   13:50   0.72   86.6    14   12.6   272    19.1   859.3    0.00 
 242   14:00   0.71   86.6    14   11.5   280    19.1   859.2    0.00 
 242   14:10   0.69   86.8    15   11.0   273    17.3   859.0    0.00 
 242   14:20   0.67   87.0    14   10.2   279    19.8   858.9    0.00 
 242   14:30   0.65   86.7    15   10.1   274    17.5   858.8    0.00 
 242   14:40   0.63   86.9    14   11.5   271    17.5   858.7    0.00 
 242   14:50   0.61   86.3    15   11.6   274    18.3   858.6    0.00 
 242   15:00   0.58   86.3    13   14.8   269    20.0   858.5    0.00 
 242   15:10   0.56   85.9    14   14.2   270    22.6   858.5    0.00 
 242   15:20   0.54   86.4    14   12.3   260    19.1   858.5    0.00 
 242   15:30   0.51   86.1    15   12.8   257    18.8   858.4    0.00 
 242   15:40   0.47   85.5    14   16.1   261    23.5   858.4    0.00 
 242   15:50   0.33   84.3    15   15.6   271    26.4   858.4    0.00 
 242   16:00   0.35   83.6    16   14.0   261    24.5   858.4    0.00 
 242   16:10   0.37   84.0    17   13.6   258    22.1   858.5    0.00 
 242   16:20   0.26   83.2    17   16.4   258    27.5   858.4    0.00 
 242   16:30   0.09   81.2    18   16.0   270    24.7   858.4    0.00 
 242   16:40   0.10   80.9    18   14.9   266    22.5   858.5    0.00 
 242   16:50   0.11   80.7    19   14.2   263    22.9   858.5    0.00 
 242   17:00   0.23   81.3    19   16.2   264    23.2   858.4    0.00 
 242   17:10   0.28   82.1    19   16.4   264    23.1   858.5    0.00 
 242   17:20   0.19   82.0    18   16.2   265    25.6   858.5    0.00 
 242   17:30   0.07   80.8    18   16.6   266    28.3   858.5    0.00 
 242   17:40   0.12   81.2    17   16.1   266    23.2   858.5    0.00 
 242   17:50   0.06   80.7    17   13.6   258    22.2   858.5    0.00 
 242   18:00   0.03   80.2    16   15.2   263    22.9   858.5    0.00 
 242   18:10   0.02   79.9    16   16.4   262    24.0   858.5    0.00 
 242   18:20   0.01   79.6    17   12.9   260    24.1   858.6    0.00 
 242   18:30   0.01   78.9    17   10.6   258    18.5   858.8    0.00 
 242   18:40   0.00   78.7    17   12.2   254    21.8   858.9    0.00 
 242   18:50   0.00   78.3    16   10.6   242    16.7   859.0    0.00 
 242   19:00   0.00   78.2    16    9.5   244    18.6   859.2    0.00 
 242   19:10   0.00   77.6    17    8.2   240    17.1   859.2    0.00 
 242   19:20   0.00   75.9    18    7.1   249    13.7   859.2    0.00 
 242   19:30   0.00   77.6    16    9.1   236    15.1   859.3    0.00 
 242   19:40   0.00   77.0    16    5.9   228     9.1   859.5    0.00 
 242   19:50   0.00   71.7    23    4.7   125     7.7   859.6    0.00 
 242   20:00   0.00   68.5    27    6.3   106    10.0   859.7    0.00 
 242   20:10   0.00   66.3    31    6.4   116     8.6   859.7    0.00 
 242   20:20   0.00   65.0    32    4.1   120     6.4   859.7    0.00 
 242   20:30   0.00   63.4    35    4.5   128     5.8   859.7    0.00 
 242   20:40   0.00   61.9    36    4.7   112     6.6   859.7    0.00 
 242   20:50   0.00   61.8    35    2.0    92     3.8   859.7    0.00 
 242   21:00   0.00   58.8    45    3.8   274     5.6   859.7    0.00 
 242   21:10   0.00   59.1    45    1.8   352     2.9   859.6    0.00 
 242   21:20   0.00   57.1    46    1.5    37     2.9   859.6    0.00 
 242   21:30   0.00   58.1    45    1.7   268     3.1   859.6    0.00 
 242   21:40   0.00   59.0    42    0.9    54     2.6   859.6    0.00 
 242   21:50   0.00   55.0    50    3.2   113     7.0   859.6    0.00 
 242   22:00   0.00   52.8    54    1.8   137     3.1   859.7    0.00 
 242   22:10   0.00   52.7    54    2.4   296     7.0   859.6    0.00 
 242   22:20   0.00   52.1    60    2.8   256     6.2   859.6    0.00 
 242   22:30   0.00   49.7    65    2.3   345     3.9   859.5    0.00 
 242   22:40   0.00   48.8    63    2.0    86     5.6   859.5    0.00 
 242   22:50   0.00   51.6    56    2.7   130     5.2   859.3    0.00 
 242   23:00   0.00   49.3    64    2.3   119     3.6   859.4    0.00 
 242   23:10   0.00   48.9    62    1.4     1     3.3   859.3    0.00 
 242   23:20   0.00   48.8    64    1.8   133     5.2   859.3    0.00 
 242   23:30   0.00   49.2    60    2.8   139     4.9   859.3    0.00 
 242   23:40   0.00   50.1    59    1.9   174     4.5   859.3    0.00 
 242   23:50   0.00   47.4    69    3.8   253     5.6   859.3    0.00 
 243    0:00   0.00   48.5    67    1.9   253     4.2   859.3    0.00 
 243    0:10   0.00   49.4    63    1.6   204     3.5   859.3    0.00 
 243    0:20   0.00   48.5    66    1.8   227     2.9   859.3    0.00 
 243    0:30   0.00   47.2    69    1.9   138     5.2   859.3    0.00 
 243    0:40   0.00   46.8    69    1.8   104     5.3   859.2    0.00 
 243    0:50   0.00   45.9    69    2.3    68     5.7   859.1    0.00 
 243    1:00   0.00   46.3    69    2.5   159     5.4   859.1    0.00 
 243    1:10   0.00   45.0    78    2.8   230     7.6   859.1    0.00 
 243    1:20   0.00   46.2    77    2.8   197     3.9   859.0    0.00 
 243    1:30   0.00   45.7    76    2.6   241     6.0   859.1    0.00 
 243    1:40   0.00   45.6    75    0.9   143     2.3   859.0    0.00 
 243    1:50   0.00   45.2    75    1.8   129     2.9   859.0    0.00 
 243    2:00   0.00   45.3    75    3.0   165     5.3   859.1    0.00 
 243    2:10   0.00   44.8    77    1.3   167     4.2   859.0    0.00 
 243    2:20   0.00   44.6    78    2.0   108     5.1   859.0    0.00 
 243    2:30   0.00   44.5    78    1.7   133     5.5   859.0    0.00 
 243    2:40   0.00   44.8    79    2.4   229     5.6   859.0    0.00 
 243    2:50   0.00   45.0    79    0.8   325     2.3   858.9    0.00 
 243    3:00   0.00   45.1    81    1.7   288     4.4   858.8    0.00 
 243    3:10   0.00   45.4    82    2.0   246     7.4   858.8    0.00 
 243    3:20   0.00   46.2    78    1.2   229     3.7   858.7    0.00 
 243    3:30   0.00   47.0    75    0.7   286     2.4   858.7    0.00 
 243    3:40   0.00   47.2    76    1.7    83     3.1   858.6    0.00 
 243    3:50   0.00   46.9    82    1.6   150     3.4   858.7    0.00 
 243    4:00   0.00   46.5    79    3.7   118     7.5   858.6    0.00 
 243    4:10   0.00   46.3    80    2.0   256     5.4   858.6    0.00 
 243    4:20   0.00   46.9    79    2.2   178     3.9   858.6    0.00 
 243    4:30   0.00   46.8    78    2.4   213     5.0   858.6    0.00 
 243    4:40   0.00   46.9    75    1.4   218     3.3   858.6    0.00 
 243    4:50   0.00   46.7    73    2.0   296     3.9   858.5    0.00 
 243    5:00   0.00   45.9    74    2.8    14     4.7   858.4    0.00 
 243    5:10   0.00   45.7    74    2.6   357     5.7   858.4    0.00 
 243    5:20   0.00   45.0    79    2.0   354     5.6   858.4    0.00 
 243    5:30   0.00   45.3    80    2.2   169     5.4   858.3    0.00 
 243    5:40   0.00   46.1    81    2.5   211     5.6   858.2    0.00 
 243    5:50   0.01   46.1    82    1.2   246     3.5   858.2    0.00 
 243    6:00   0.02   46.3    82    1.2    96     3.8   858.4    0.00 
 243    6:10   0.03   47.1    80    1.5    59     4.0   858.5    0.00 
 243    6:20   0.02   48.3    80    1.2   275     4.6   858.5    0.00 
 243    6:30   0.04   48.5    80    2.9    43     4.8   858.5    0.00 
 243    6:40   0.04   49.7    75    3.0   327     6.1   858.6    0.00 
 243    6:50   0.05   50.3    73    3.3    66     6.7   858.7    0.00 
 243    7:00   0.05   50.7    72    4.1   168    10.2   858.8    0.00 
 243    7:10   0.06   50.3    77    2.4   163     5.6   859.0    0.00 
 243    7:20   0.06   50.5    78    1.9   173     3.2   859.0    0.00 
 243    7:30   0.10   51.2    75    2.3   130     4.8   859.0    0.00 
 243    7:40   0.22   53.6    69    2.3   159     5.1   859.0    0.00 
 243    7:50   0.40   59.2    53    3.6   163     5.3   859.0    0.00 
 243    8:00   0.43   64.5    38    3.1   179     5.5   859.2    0.00 
 243    8:10   0.48   67.2    34    2.4   133     4.6   859.2    0.00 
 243    8:20   0.50   69.1    33    2.7   171     5.0   859.3    0.00 
 243    8:30   0.51   71.7    30    2.4   158     5.4   859.2    0.00 
 243    8:40   0.53   73.1    32    2.0   173     5.9   859.3    0.00 
 243    8:50   0.56   76.4    25    2.3   110     3.7   859.3    0.00 
 243    9:00   0.59   79.4    19    1.4    23     3.0   859.2    0.00 
 243    9:10   0.66   79.6    24    3.5   280     7.5   859.2    0.00 
 243    9:20   0.77   78.4    22    4.3   306     9.5   859.1    0.00 
 243    9:30   0.61   80.6    20    2.0   304     5.0   859.0    0.00 
 243    9:40   0.57   80.9    17    4.8   108    13.4   858.8    0.00 
 243    9:50   0.48   80.2    15    5.0   133     8.5   858.9    0.00 
 243   10:00   0.69   82.0    15    2.0   104     6.0   858.8    0.00 
 243   10:10   0.79   82.9    15    2.1   312     5.4   858.6    0.00 
 243   10:20   0.85   83.2    17    3.6   351     8.1   858.4    0.00 
 243   10:30   0.84   82.2    18    5.6   277    11.2   858.3    0.00 
 243   10:40   0.91   82.8    18    5.0   300    12.5   858.1    0.00 
 243   10:50   0.98   83.7    16    4.5   280     9.9   858.0    0.00 

Return to Carson Valley graphs page.


Western Regional Climate Center,wrcc@dri.edu